Time;durP1;ratioP1;P1;durP2;ratioP2;P2;SDS_P1;SDS_P2;PMS_P1;PMS_P2;Temp;Humidity;BMP_temperature;BMP_pressure;BME280_temperature;BME280_humidity;BME280_pressure;Samples;Min_cycle;Max_cycle;Signal;HPM_P1;HPM_P2
2022/07/03 00:01:52;;;;;;;;;;;16.50;99.90;;;;;;5056366;28;19916;-65
2022/07/03 00:04:20;;;;;;;;;;;16.40;99.90;;;;;;5056031;28;20360;-66
2022/07/03 00:06:47;;;;;;;;;;;16.40;99.90;;;;;;5056214;28;19920;-65
2022/07/03 00:09:14;;;;;;;;;;;16.30;99.90;;;;;;5088595;28;20062;-66
2022/07/03 00:11:40;;;;;;;;;;;16.30;99.90;;;;;;5055871;28;19962;-66
2022/07/03 00:14:07;;;;;;;;;;;16.30;99.90;;;;;;5089092;28;19917;-65
2022/07/03 00:16:34;;;;;;;;;;;16.30;99.90;;;;;;5056933;28;19921;-65
2022/07/03 00:19:01;;;;;;;;;;;16.30;99.90;;;;;;5055796;28;19916;-65
2022/07/03 00:21:29;;;;;;;;;;;16.30;99.90;;;;;;5056764;28;19917;-65
2022/07/03 00:23:57;;;;;;;;;;;16.30;99.90;;;;;;5055720;28;19917;-65
2022/07/03 00:26:24;;;;;;;;;;;16.30;99.90;;;;;;5088801;28;19924;-65
2022/07/03 00:28:51;;;;;;;;;;;16.30;99.90;;;;;;5056017;28;19921;-65
2022/07/03 00:31:17;;;;;;;;;;;16.30;99.90;;;;;;5056709;28;19916;-65
2022/07/03 00:33:44;;;;;;;;;;;16.30;99.90;;;;;;5054432;28;19916;-66
2022/07/03 00:36:11;;;;;;;;;;;16.30;99.90;;;;;;5055112;28;19917;-66
2022/07/03 00:38:38;;;;;;;;;;;16.30;99.90;;;;;;5055782;28;19920;-66
2022/07/03 00:41:05;;;;;;;;;;;16.30;99.90;;;;;;5054566;28;19917;-66
2022/07/03 00:43:31;;;;;;;;;;;16.30;99.90;;;;;;5088387;28;19917;-66
2022/07/03 00:46:03;;;;;;;;;;;16.30;99.90;;;;;;5087597;28;20288;-66
2022/07/03 00:48:30;;;;;;;;;;;16.30;99.90;;;;;;5088247;28;20264;-66
2022/07/03 00:50:57;;;;;;;;;;;16.30;99.90;;;;;;5055201;28;19917;-66
2022/07/03 00:53:26;;;;;;;;;;;16.30;99.90;;;;;;5054386;28;20410;-65
2022/07/03 00:55:53;;;;;;;;;;;16.20;99.90;;;;;;5088109;28;19924;-66
2022/07/03 00:58:20;;;;;;;;;;;16.20;99.90;;;;;;5070615;28;19920;-66
2022/07/03 01:00:47;;;;;;;;;;;16.20;99.90;;;;;;5087357;28;20348;-66
2022/07/03 01:03:17;;;;;;;;;;;16.20;99.90;;;;;;5054901;28;20324;-66
2022/07/03 01:05:54;;;;;;;;;;;16.20;99.90;;;;;;5055194;28;20020;-66
2022/07/03 01:08:20;;;;;;;;;;;16.20;99.90;;;;;;5054895;28;19916;-66
2022/07/03 01:10:59;;;;;;;;;;;16.10;99.90;;;;;;5054770;28;19916;-66
2022/07/03 01:13:29;;;;;;;;;;;16.10;99.90;;;;;;5087682;28;19917;-65
2022/07/03 01:16:11;;;;;;;;;;;16.10;99.90;;;;;;5054646;28;19917;-65
2022/07/03 01:18:46;;;;;;;;;;;16.10;99.90;;;;;;5087706;28;19960;-65
2022/07/03 01:21:38;;;;;;;;;;;16.10;99.90;;;;;;5054470;28;19924;-66
2022/07/03 01:24:17;;;;;;;;;;;16.00;99.90;;;;;;5055659;28;19955;-66
2022/07/03 01:26:45;;;;;;;;;;;16.00;99.90;;;;;;5086601;28;19924;-66
2022/07/03 01:29:13;;;;;;;;;;;16.00;99.90;;;;;;5054598;28;19916;-66
2022/07/03 01:31:41;;;;;;;;;;;15.90;99.90;;;;;;5054697;28;19974;-66
2022/07/03 01:34:09;;;;;;;;;;;15.90;99.90;;;;;;5087294;28;19939;-66
2022/07/03 01:36:36;;;;;;;;;;;15.80;99.90;;;;;;5054181;28;19924;-65
2022/07/03 01:39:03;;;;;;;;;;;15.70;99.90;;;;;;5087273;28;19916;-64
2022/07/03 01:41:29;;;;;;;;;;;15.60;99.90;;;;;;5054677;28;20333;-65
2022/07/03 01:43:57;;;;;;;;;;;15.60;99.90;;;;;;5054231;28;19929;-65
2022/07/03 01:46:27;;;;;;;;;;;15.50;99.90;;;;;;5086252;28;19923;-66
2022/07/03 01:48:54;;;;;;;;;;;15.40;99.90;;;;;;5053991;28;20375;-66
2022/07/03 01:51:23;;;;;;;;;;;15.40;99.90;;;;;;5055337;28;19917;-66
2022/07/03 01:53:50;;;;;;;;;;;15.30;99.90;;;;;;5053861;28;20026;-66
2022/07/03 01:56:17;;;;;;;;;;;15.30;99.90;;;;;;5086047;28;19917;-66
2022/07/03 01:58:44;;;;;;;;;;;15.20;99.90;;;;;;5086031;28;19917;-67
2022/07/03 02:01:30;;;;;;;;;;;15.10;99.90;;;;;;5053820;28;19917;-66
2022/07/03 02:04:00;;;;;;;;;;;15.00;99.90;;;;;;5087139;28;19924;-66
2022/07/03 02:06:28;;;;;;;;;;;15.00;99.90;;;;;;5086364;28;19923;-66
2022/07/03 02:09:05;;;;;;;;;;;15.00;99.90;;;;;;5086222;28;20268;-66
2022/07/03 02:11:52;;;;;;;;;;;14.90;99.90;;;;;;5053765;28;20360;-66
2022/07/03 02:14:23;;;;;;;;;;;14.90;99.90;;;;;;5053752;28;20435;-65
2022/07/03 02:17:09;;;;;;;;;;;14.90;99.90;;;;;;5053531;28;19920;-66
2022/07/03 02:19:42;;;;;;;;;;;14.80;99.90;;;;;;5054567;28;19923;-66
2022/07/03 02:22:09;;;;;;;;;;;14.80;99.90;;;;;;5053606;28;19925;-66
2022/07/03 02:24:40;;;;;;;;;;;14.70;99.90;;;;;;5085649;28;19917;-66
2022/07/03 02:27:07;;;;;;;;;;;14.60;99.90;;;;;;5085643;28;19917;-66
2022/07/03 02:29:41;;;;;;;;;;;14.60;99.90;;;;;;5086486;28;19924;-66
2022/07/03 02:32:11;;;;;;;;;;;14.50;99.90;;;;;;5054653;28;20003;-66
2022/07/03 02:34:38;;;;;;;;;;;14.50;99.90;;;;;;5053396;28;19923;-66
2022/07/03 02:37:17;;;;;;;;;;;14.40;99.90;;;;;;5053904;28;19917;-66
2022/07/03 02:39:50;;;;;;;;;;;14.40;99.90;;;;;;5053352;28;19916;-66
2022/07/03 02:42:23;;;;;;;;;;;14.30;99.90;;;;;;5053328;28;19931;-66
2022/07/03 02:44:50;;;;;;;;;;;14.30;99.90;;;;;;5054438;28;19946;-66
2022/07/03 02:47:29;;;;;;;;;;;14.20;99.90;;;;;;5053656;28;19923;-65
2022/07/03 02:49:58;;;;;;;;;;;14.20;99.90;;;;;;5085595;28;19951;-66
2022/07/03 02:52:37;;;;;;;;;;;14.20;99.90;;;;;;5085525;28;19923;-65
2022/07/03 02:55:04;;;;;;;;;;;14.10;99.90;;;;;;5054382;28;19916;-65
2022/07/03 02:57:38;;;;;;;;;;;14.10;99.90;;;;;;5053231;28;19920;-66
2022/07/03 03:00:06;;;;;;;;;;;14.10;99.90;;;;;;5053558;28;20366;-65
2022/07/03 03:02:52;;;;;;;;;;;14.00;99.90;;;;;;5054298;28;19924;-65
2022/07/03 03:05:19;;;;;;;;;;;14.00;99.90;;;;;;5054067;28;20244;-65
2022/07/03 03:07:48;;;;;;;;;;;14.00;99.90;;;;;;5053661;28;19917;-65
2022/07/03 03:10:16;;;;;;;;;;;14.00;99.90;;;;;;5053062;28;19923;-65
2022/07/03 03:12:43;;;;;;;;;;;13.90;99.90;;;;;;5054246;28;19916;-65
2022/07/03 03:15:11;;;;;;;;;;;13.90;99.90;;;;;;5085184;28;19920;-66
2022/07/03 03:17:41;;;;;;;;;;;13.90;99.90;;;;;;5056329;28;19956;-66
2022/07/03 03:20:09;;;;;;;;;;;13.90;99.90;;;;;;5057030;28;19923;-66
2022/07/03 03:22:40;;;;;;;;;;;13.80;99.90;;;;;;5088887;28;20012;-65
2022/07/03 03:25:10;;;;;;;;;;;13.80;99.90;;;;;;5087697;28;20011;-65
2022/07/03 03:27:37;;;;;;;;;;;13.80;99.90;;;;;;5056976;28;19939;-65
2022/07/03 03:30:06;;;;;;;;;;;13.70;99.90;;;;;;5056978;28;19921;-64
2022/07/03 03:32:37;;;;;;;;;;;13.70;99.90;;;;;;5056986;28;20011;-65
2022/07/03 03:35:05;;;;;;;;;;;13.70;99.90;;;;;;5088540;28;20325;-65
2022/07/03 03:37:32;;;;;;;;;;;13.70;99.90;;;;;;5056762;28;19928;-65
2022/07/03 03:39:59;;;;;;;;;;;13.60;99.90;;;;;;5056398;28;19916;-65
2022/07/03 03:42:25;;;;;;;;;;;13.60;99.90;;;;;;5088554;28;19917;-65
2022/07/03 03:44:52;;;;;;;;;;;13.50;99.90;;;;;;5056362;28;19917;-65
2022/07/03 03:47:19;;;;;;;;;;;13.50;99.90;;;;;;5088633;28;19931;-65
2022/07/03 03:49:46;;;;;;;;;;;13.50;99.90;;;;;;5056270;28;19917;-66
2022/07/03 03:52:13;;;;;;;;;;;13.40;99.90;;;;;;5056216;28;19921;-65
2022/07/03 03:54:39;;;;;;;;;;;13.40;99.90;;;;;;5088297;28;19917;-65
2022/07/03 03:57:22;;;;;;;;;;;13.40;99.90;;;;;;5057354;28;19924;-65
2022/07/03 03:59:49;;;;;;;;;;;13.40;99.90;;;;;;5056103;28;20351;-64
2022/07/03 04:02:16;;;;;;;;;;;13.40;99.90;;;;;;5088211;28;19922;-66
2022/07/03 04:04:43;;;;;;;;;;;13.30;99.90;;;;;;5088626;28;19917;-65
2022/07/03 04:07:10;;;;;;;;;;;13.30;99.90;;;;;;5055986;28;19932;-65
2022/07/03 04:09:37;;;;;;;;;;;13.30;99.90;;;;;;5056285;28;19924;-65
2022/07/03 04:12:04;;;;;;;;;;;13.20;99.90;;;;;;5056243;28;19923;-65
2022/07/03 04:14:30;;;;;;;;;;;13.20;99.90;;;;;;5089083;28;19923;-65
2022/07/03 04:16:57;;;;;;;;;;;13.20;99.90;;;;;;5054557;28;20011;-65
2022/07/03 04:19:24;;;;;;;;;;;13.10;99.90;;;;;;5056062;28;19916;-65
2022/07/03 04:21:51;;;;;;;;;;;13.10;99.90;;;;;;5056505;28;20279;-66
2022/07/03 04:24:18;;;;;;;;;;;13.10;99.90;;;;;;5056450;28;20248;-66
2022/07/03 04:26:45;;;;;;;;;;;13.10;99.90;;;;;;5055643;28;19975;-66
2022/07/03 04:29:12;;;;;;;;;;;13.10;99.90;;;;;;5054287;28;20356;-66
2022/07/03 04:31:38;;;;;;;;;;;13.10;99.90;;;;;;5055419;28;19917;-66
2022/07/03 04:34:11;;;;;;;;;;;13.10;99.90;;;;;;5087863;28;19921;-66
2022/07/03 04:36:41;;;;;;;;;;;13.10;99.90;;;;;;5056563;28;19917;-65
2022/07/03 04:39:13;;;;;;;;;;;13.10;99.90;;;;;;5087684;28;19917;-65
2022/07/03 04:41:42;;;;;;;;;;;13.10;99.90;;;;;;5056402;28;19917;-66
2022/07/03 04:44:09;;;;;;;;;;;13.20;99.90;;;;;;5055588;28;20283;-65
2022/07/03 04:46:36;;;;;;;;;;;13.40;99.90;;;;;;5055099;28;19923;-65
2022/07/03 04:49:03;;;;;;;;;;;13.80;99.90;;;;;;5055178;28;19970;-65
2022/07/03 04:51:32;;;;;;;;;;;14.30;99.90;;;;;;5056471;28;19920;-65
2022/07/03 04:54:00;;;;;;;;;;;14.80;99.90;;;;;;5056182;28;19916;-65
2022/07/03 04:56:27;;;;;;;;;;;15.40;99.90;;;;;;5055370;28;19924;-66
2022/07/03 04:59:00;;;;;;;;;;;16.00;99.90;;;;;;5055377;28;19920;-66
2022/07/03 05:01:26;;;;;;;;;;;16.50;99.90;;;;;;5055460;28;20343;-66
2022/07/03 05:04:02;;;;;;;;;;;17.10;99.90;;;;;;5054022;28;19988;-65
2022/07/03 05:06:29;;;;;;;;;;;17.60;99.90;;;;;;5056049;28;19923;-65
2022/07/03 05:08:56;;;;;;;;;;;18.10;99.90;;;;;;5054745;28;20339;-65
2022/07/03 05:11:23;;;;;;;;;;;18.50;99.90;;;;;;5054689;28;20275;-65
2022/07/03 05:13:52;;;;;;;;;;;18.90;99.90;;;;;;5054743;28;19923;-65
2022/07/03 05:16:19;;;;;;;;;;;19.30;99.90;;;;;;5054945;28;19916;-65
2022/07/03 05:18:47;;;;;;;;;;;19.70;99.90;;;;;;5054591;28;19916;-66
2022/07/03 05:21:17;;;;;;;;;;;19.90;99.90;;;;;;5086856;28;19917;-65
2022/07/03 05:23:46;;;;;;;;;;;20.20;99.90;;;;;;5054587;28;19916;-66
2022/07/03 05:26:13;;;;;;;;;;;20.30;99.90;;;;;;5055583;28;19940;-65
2022/07/03 05:28:40;;;;;;;;;;;20.40;99.90;;;;;;5086752;28;19916;-65
2022/07/03 05:31:13;;;;;;;;;;;20.40;99.90;;;;;;5055229;28;19988;-65
2022/07/03 05:33:42;;;;;;;;;;;20.50;99.90;;;;;;5054361;28;19927;-65
2022/07/03 05:36:09;;;;;;;;;;;20.70;99.90;;;;;;5086489;28;19917;-65
2022/07/03 05:41:21;;;;;;;;;;;20.90;99.90;;;;;;5054199;28;20379;-65
2022/07/03 05:43:53;;;;;;;;;;;21.00;99.90;;;;;;5055039;28;19917;-65
2022/07/03 05:46:38;;;;;;;;;;;21.00;99.90;;;;;;5054326;28;19917;-65
2022/07/03 05:49:05;;;;;;;;;;;21.00;99.90;;;;;;5054954;28;20229;-65
2022/07/03 05:51:34;;;;;;;;;;;20.70;99.90;;;;;;5054311;28;19978;-65
2022/07/03 05:54:01;;;;;;;;;;;20.50;99.90;;;;;;5054905;28;20304;-65
2022/07/03 05:56:30;;;;;;;;;;;20.50;99.90;;;;;;5053957;28;19917;-65
2022/07/03 05:58:57;;;;;;;;;;;20.50;99.90;;;;;;5053907;28;20007;-65
2022/07/03 06:01:24;;;;;;;;;;;20.60;99.90;;;;;;5054090;28;19917;-65
2022/07/03 06:03:51;;;;;;;;;;;20.40;99.90;;;;;;5054834;28;20007;-65
2022/07/03 06:06:18;;;;;;;;;;;20.30;99.90;;;;;;5086095;28;19975;-65
2022/07/03 06:08:44;;;;;;;;;;;20.10;99.90;;;;;;5053857;28;19916;-65
2022/07/03 06:11:11;;;;;;;;;;;20.10;99.90;;;;;;5054684;28;20313;-65
2022/07/03 06:13:38;;;;;;;;;;;19.90;99.90;;;;;;5054719;28;19917;-65
2022/07/03 06:16:05;;;;;;;;;;;19.80;99.90;;;;;;5054050;28;19924;-65
2022/07/03 06:18:32;;;;;;;;;;;19.60;99.90;;;;;;5053709;28;20372;-65
2022/07/03 06:21:01;;;;;;;;;;;19.50;99.90;;;;;;5053969;28;20344;-65
2022/07/03 06:23:28;;;;;;;;;;;19.40;99.90;;;;;;5053632;28;19917;-65
2022/07/03 06:26:11;;;;;;;;;;;19.30;99.90;;;;;;5054788;28;20265;-65
2022/07/03 06:28:38;;;;;;;;;;;19.20;99.90;;;;;;5053866;28;20027;-65
2022/07/03 06:31:04;;;;;;;;;;;19.10;99.90;;;;;;5054314;28;19916;-65
2022/07/03 06:33:31;;;;;;;;;;;19.00;99.90;;;;;;5052632;28;19917;-65
2022/07/03 06:35:58;;;;;;;;;;;19.00;99.90;;;;;;5054334;28;19931;-70
2022/07/03 06:38:25;;;;;;;;;;;19.00;99.90;;;;;;5054583;28;19992;-65
2022/07/03 06:40:52;;;;;;;;;;;19.10;99.90;;;;;;5053630;28;19917;-65
2022/07/03 06:43:18;;;;;;;;;;;19.10;99.90;;;;;;5054542;28;19924;-65
2022/07/03 06:45:46;;;;;;;;;;;19.30;99.90;;;;;;5054224;28;19916;-65
2022/07/03 06:48:13;;;;;;;;;;;19.30;99.90;;;;;;5053317;28;19920;-65
2022/07/03 06:50:40;;;;;;;;;;;19.30;99.90;;;;;;5053346;28;19916;-65
2022/07/03 06:53:07;;;;;;;;;;;19.30;99.90;;;;;;5057214;28;20352;-65
2022/07/03 06:55:36;;;;;;;;;;;19.50;99.90;;;;;;5057617;28;20353;-65
2022/07/03 06:58:03;;;;;;;;;;;19.60;99.90;;;;;;5089929;28;19925;-65
2022/07/03 07:00:30;;;;;;;;;;;19.70;99.90;;;;;;5058369;28;19916;-65
2022/07/03 07:02:57;;;;;;;;;;;19.80;99.90;;;;;;5089427;28;19924;-65
2022/07/03 07:05:26;;;;;;;;;;;19.80;99.90;;;;;;5058263;28;19939;-65
2022/07/03 07:07:53;;;;;;;;;;;19.80;99.90;;;;;;5058198;28;19923;-65
2022/07/03 07:10:19;;;;;;;;;;;19.80;99.90;;;;;;5057460;28;19917;-65
2022/07/03 07:12:46;;;;;;;;;;;19.80;99.90;;;;;;5057026;28;19957;-65
2022/07/03 07:15:13;;;;;;;;;;;19.70;99.90;;;;;;5056863;28;19939;-65
2022/07/03 07:17:40;;;;;;;;;;;19.80;99.90;;;;;;5056943;28;19916;-65
2022/07/03 07:20:07;;;;;;;;;;;19.90;99.90;;;;;;5056846;28;20374;-65
2022/07/03 07:22:35;;;;;;;;;;;19.90;99.90;;;;;;5056700;28;19916;-65
2022/07/03 07:25:02;;;;;;;;;;;19.80;99.90;;;;;;5072563;28;19928;-65
2022/07/03 07:27:29;;;;;;;;;;;19.80;99.90;;;;;;5057106;28;19916;-66
2022/07/03 07:29:58;;;;;;;;;;;19.70;99.90;;;;;;5057820;28;19916;-65
2022/07/03 07:32:25;;;;;;;;;;;19.80;99.90;;;;;;5056971;28;20002;-65
2022/07/03 07:34:52;;;;;;;;;;;19.90;99.90;;;;;;5057941;28;19917;-64
2022/07/03 07:37:21;;;;;;;;;;;19.90;99.90;;;;;;5056540;28;20246;-64
2022/07/03 07:39:52;;;;;;;;;;;19.90;99.90;;;;;;5055219;28;19924;-64
2022/07/03 07:42:28;;;;;;;;;;;19.90;99.90;;;;;;5056500;28;19923;-65
2022/07/03 07:44:54;;;;;;;;;;;20.10;99.90;;;;;;5057377;28;19924;-65
2022/07/03 07:47:21;;;;;;;;;;;20.30;99.90;;;;;;5088835;28;19916;-65
2022/07/03 07:49:48;;;;;;;;;;;20.40;99.90;;;;;;5056868;28;19917;-65
2022/07/03 07:52:17;;;;;;;;;;;20.50;99.90;;;;;;5087714;28;20011;-65
2022/07/03 07:54:44;;;;;;;;;;;20.50;99.90;;;;;;5057599;28;19920;-65
2022/07/03 07:57:11;;;;;;;;;;;20.50;99.90;;;;;;5056511;28;19924;-65
2022/07/03 07:59:37;;;;;;;;;;;20.50;99.90;;;;;;5056977;28;19931;-66
2022/07/03 08:07:41;;;;;;;;;;;20.60;99.90;;;;;;5056357;28;19920;-65
2022/07/03 08:10:08;;;;;;;;;;;20.60;99.90;;;;;;5055852;28;19923;-64
2022/07/03 08:12:34;;;;;;;;;;;20.60;99.60;;;;;;5056897;28;19938;-65
2022/07/03 08:15:01;;;;;;;;;;;20.40;99.90;;;;;;5055833;28;19923;-70
2022/07/03 08:17:28;;;;;;;;;;;20.50;99.90;;;;;;5088559;28;19917;-65
2022/07/03 08:19:55;;;;;;;;;;;20.40;99.40;;;;;;5055918;28;19924;-64
2022/07/03 08:22:21;;;;;;;;;;;20.30;99.90;;;;;;5055516;28;19917;-64
2022/07/03 08:24:48;;;;;;;;;;;20.40;99.30;;;;;;5087730;28;19967;-64
2022/07/03 08:27:15;;;;;;;;;;;20.40;99.00;;;;;;5054590;28;20362;-66
2022/07/03 08:29:42;;;;;;;;;;;20.50;99.90;;;;;;5056585;28;19916;-65
2022/07/03 08:32:09;;;;;;;;;;;20.70;99.90;;;;;;5055653;28;19920;-65
2022/07/03 08:34:36;;;;;;;;;;;20.80;98.90;;;;;;5056221;28;19917;-65
2022/07/03 08:37:03;;;;;;;;;;;21.00;97.50;;;;;;5056509;28;19972;-65
2022/07/03 08:39:30;;;;;;;;;;;21.20;95.80;;;;;;5055624;28;19952;-65
2022/07/03 08:41:58;;;;;;;;;;;21.30;95.70;;;;;;5055572;28;20272;-65
2022/07/03 08:44:25;;;;;;;;;;;21.30;94.50;;;;;;5088443;28;19916;-65
2022/07/03 08:46:52;;;;;;;;;;;21.30;95.50;;;;;;5056030;28;19924;-65
2022/07/03 08:49:19;;;;;;;;;;;21.50;93.80;;;;;;5055891;28;19924;-65
2022/07/03 08:51:46;;;;;;;;;;;21.70;93.30;;;;;;5087127;28;19917;-65
2022/07/03 08:54:13;;;;;;;;;;;21.80;92.20;;;;;;5055366;28;20322;-65
2022/07/03 08:56:46;;;;;;;;;;;21.70;92.00;;;;;;5085591;28;19917;-65
2022/07/03 08:59:13;;;;;;;;;;;21.70;91.70;;;;;;5087233;28;19921;-66
2022/07/03 09:01:49;;;;;;;;;;;21.50;91.00;;;;;;5071225;28;19917;-65
2022/07/03 09:04:15;;;;;;;;;;;21.40;91.60;;;;;;5056016;28;19924;-65
2022/07/03 09:06:48;;;;;;;;;;;21.20;91.80;;;;;;5054825;28;20361;-65
2022/07/03 09:09:22;;;;;;;;;;;21.20;91.30;;;;;;5055567;28;19932;-65
2022/07/03 09:11:58;;;;;;;;;;;21.30;93.10;;;;;;5055586;28;19917;-65
2022/07/03 09:14:24;;;;;;;;;;;21.20;92.10;;;;;;5087041;28;19995;-65
2022/07/03 09:16:51;;;;;;;;;;;21.20;92.10;;;;;;5054944;28;19924;-65
2022/07/03 09:19:43;;;;;;;;;;;21.30;91.90;;;;;;5053862;28;19916;-65
2022/07/03 09:22:21;;;;;;;;;;;21.30;92.00;;;;;;5054513;28;19916;-65
2022/07/03 09:25:07;;;;;;;;;;;21.30;92.00;;;;;;5052519;28;19930;-65
2022/07/03 09:27:35;;;;;;;;;;;21.30;92.50;;;;;;5054721;28;19942;-65
2022/07/03 09:30:08;;;;;;;;;;;21.40;92.20;;;;;;5055430;28;20242;-65
2022/07/03 09:32:47;;;;;;;;;;;21.60;92.80;;;;;;5054250;28;19917;-65
2022/07/03 09:35:21;;;;;;;;;;;21.80;92.60;;;;;;5054296;28;19917;-65
2022/07/03 09:37:57;;;;;;;;;;;21.80;90.40;;;;;;5086062;28;19952;-65
2022/07/03 09:40:24;;;;;;;;;;;21.90;91.70;;;;;;5054712;28;19920;-65
2022/07/03 09:42:58;;;;;;;;;;;22.00;90.00;;;;;;5055100;28;19974;-65
2022/07/03 09:45:25;;;;;;;;;;;22.00;89.30;;;;;;5055107;28;20268;-68
2022/07/03 09:47:53;;;;;;;;;;;22.00;91.20;;;;;;5054893;28;19916;-64
2022/07/03 09:50:45;;;;;;;;;;;22.10;90.70;;;;;;5055109;28;19970;-62
2022/07/03 09:53:12;;;;;;;;;;;22.10;85.60;;;;;;5085941;28;19917;-73
2022/07/03 09:55:41;;;;;;;;;;;21.90;85.40;;;;;;5054170;28;19932;-65
2022/07/03 09:58:08;;;;;;;;;;;21.70;85.90;;;;;;5054885;28;20232;-64
2022/07/03 10:00:36;;;;;;;;;;;21.70;88.30;;;;;;5086232;28;19916;-65
2022/07/03 10:03:09;;;;;;;;;;;21.80;89.10;;;;;;5054456;28;19955;-64
2022/07/03 10:05:39;;;;;;;;;;;21.90;89.60;;;;;;5053596;28;19924;-64
2022/07/03 10:08:06;;;;;;;;;;;21.90;88.70;;;;;;5085891;28;20356;-64
2022/07/03 10:10:33;;;;;;;;;;;21.80;90.20;;;;;;5054218;28;19923;-64
2022/07/03 10:13:00;;;;;;;;;;;21.60;87.30;;;;;;5053859;28;20268;-64
2022/07/03 10:15:37;;;;;;;;;;;21.50;83.30;;;;;;5053535;28;19924;-64
2022/07/03 10:18:05;;;;;;;;;;;21.60;83.70;;;;;;5084873;28;19920;-64
2022/07/03 10:20:35;;;;;;;;;;;21.60;82.90;;;;;;5054255;28;19921;-64
2022/07/03 10:23:02;;;;;;;;;;;21.80;84.50;;;;;;5054308;28;19917;-64
2022/07/03 10:25:29;;;;;;;;;;;21.90;83.70;;;;;;5053424;28;19923;-64
2022/07/03 10:27:56;;;;;;;;;;;21.90;82.40;;;;;;5053790;28;19916;-64
2022/07/03 10:30:23;;;;;;;;;;;21.60;84.10;;;;;;5085723;28;19971;-64
2022/07/03 10:32:52;;;;;;;;;;;21.60;86.50;;;;;;5053392;28;20280;-65
2022/07/03 10:35:35;;;;;;;;;;;21.90;90.20;;;;;;5053357;28;19916;-64
2022/07/03 10:38:02;;;;;;;;;;;22.30;84.90;;;;;;5085408;28;19970;-68
2022/07/03 10:46:13;;;;;;;;;;;23.50;82.50;;;;;;5053850;28;19921;-65
2022/07/03 10:48:55;;;;;;;;;;;23.50;76.40;;;;;;5054047;28;20248;-65
2022/07/03 10:51:21;;;;;;;;;;;23.30;77.50;;;;;;5053276;28;19917;-65
2022/07/03 10:53:48;;;;;;;;;;;22.90;79.90;;;;;;5054512;28;19916;-65
2022/07/03 10:56:15;;;;;;;;;;;22.70;80.70;;;;;;5053478;28;19923;-65
2022/07/03 10:58:55;;;;;;;;;;;22.50;83.30;;;;;;5053294;28;20353;-65
2022/07/03 11:01:28;;;;;;;;;;;22.40;83.50;;;;;;5053026;28;20352;-65
2022/07/03 11:04:01;;;;;;;;;;;22.20;84.70;;;;;;5084980;28;19963;-64
2022/07/03 11:06:51;;;;;;;;;;;22.10;85.60;;;;;;5084419;28;19959;-64
2022/07/03 11:09:18;;;;;;;;;;;21.90;85.60;;;;;;5060902;28;19916;-65
2022/07/03 11:11:54;;;;;;;;;;;21.70;87.80;;;;;;5052980;28;19967;-65
2022/07/03 11:14:21;;;;;;;;;;;21.60;89.90;;;;;;5054221;28;19916;-65
2022/07/03 11:16:48;;;;;;;;;;;21.80;90.80;;;;;;5084943;28;20007;-65
2022/07/03 11:19:15;;;;;;;;;;;22.10;90.60;;;;;;5086023;28;20217;-69
2022/07/03 11:21:42;;;;;;;;;;;22.30;86.20;;;;;;5085048;28;19916;-65
2022/07/03 11:24:12;;;;;;;;;;;22.60;87.50;;;;;;5053228;28;20276;-65
2022/07/03 11:26:39;;;;;;;;;;;22.70;83.10;;;;;;5053304;28;19924;-66
2022/07/03 11:29:05;;;;;;;;;;;22.50;83.10;;;;;;5085949;28;19928;-66
2022/07/03 11:31:33;;;;;;;;;;;22.30;84.40;;;;;;5054140;28;19916;-66
2022/07/03 11:34:00;;;;;;;;;;;22.20;83.30;;;;;;5053231;28;19917;-66
2022/07/03 11:36:27;;;;;;;;;;;22.30;82.50;;;;;;5085222;28;19917;-66
2022/07/03 11:39:03;;;;;;;;;;;22.10;80.70;;;;;;5055915;28;19927;-66
2022/07/03 11:41:36;;;;;;;;;;;22.10;81.20;;;;;;5057649;28;19917;-66
2022/07/03 11:44:07;;;;;;;;;;;22.20;80.00;;;;;;5056337;28;19921;-66
2022/07/03 11:46:34;;;;;;;;;;;22.40;79.30;;;;;;5088715;28;20194;-65
2022/07/03 11:49:07;;;;;;;;;;;22.60;77.30;;;;;;5056594;28;20349;-66
2022/07/03 11:51:34;;;;;;;;;;;22.60;76.20;;;;;;5056569;28;19924;-64
2022/07/03 11:54:01;;;;;;;;;;;22.70;79.10;;;;;;5056446;28;19939;-71
2022/07/03 11:56:28;;;;;;;;;;;23.00;79.20;;;;;;5057076;28;20225;-66
2022/07/03 11:59:05;;;;;;;;;;;23.30;77.10;;;;;;5056286;28;19916;-66
2022/07/03 12:01:36;;;;;;;;;;;23.60;74.40;;;;;;5071577;28;19923;-65
2022/07/03 12:04:06;;;;;;;;;;;23.60;72.40;;;;;;5056052;28;20255;-65
2022/07/03 12:06:34;;;;;;;;;;;23.80;71.50;;;;;;5057523;28;19917;-66
2022/07/03 12:09:02;;;;;;;;;;;23.90;70.40;;;;;;5088336;28;19916;-75
2022/07/03 12:11:28;;;;;;;;;;;23.90;70.50;;;;;;5056350;28;20394;-67
2022/07/03 12:13:55;;;;;;;;;;;24.10;70.40;;;;;;5087868;28;19931;-65
2022/07/03 12:16:27;;;;;;;;;;;24.20;68.90;;;;;;5056190;28;20268;-65
2022/07/03 12:18:54;;;;;;;;;;;24.10;68.30;;;;;;5088482;28;19974;-65
2022/07/03 12:21:22;;;;;;;;;;;24.00;70.50;;;;;;5055796;28;19916;-66
2022/07/03 12:23:53;;;;;;;;;;;23.90;71.30;;;;;;5056470;28;19917;-65
2022/07/03 12:26:29;;;;;;;;;;;23.80;68.80;;;;;;5056152;28;19959;-65
2022/07/03 12:29:00;;;;;;;;;;;23.60;69.30;;;;;;5055569;28;20353;-65
2022/07/03 12:31:27;;;;;;;;;;;23.50;70.00;;;;;;5087532;28;20375;-68
2022/07/03 12:33:53;;;;;;;;;;;23.50;70.40;;;;;;5087825;28;20234;-66
2022/07/03 12:36:20;;;;;;;;;;;23.40;69.60;;;;;;5056242;28;19916;-65
2022/07/03 12:38:48;;;;;;;;;;;23.30;70.90;;;;;;5055977;28;19916;-65
2022/07/03 12:41:14;;;;;;;;;;;23.30;70.20;;;;;;5087556;28;19916;-64
2022/07/03 12:43:42;;;;;;;;;;;23.40;70.40;;;;;;5054267;28;19917;-65
2022/07/03 12:46:18;;;;;;;;;;;23.40;70.20;;;;;;5055233;28;19926;-65
2022/07/03 12:48:49;;;;;;;;;;;23.30;69.60;;;;;;5052952;28;20001;-71
2022/07/03 12:51:16;;;;;;;;;;;23.20;69.90;;;;;;5071228;28;20011;-67
2022/07/03 12:53:43;;;;;;;;;;;23.20;68.70;;;;;;5056133;28;19924;-67
2022/07/03 12:56:10;;;;;;;;;;;23.20;69.70;;;;;;5054429;28;19916;-69
2022/07/03 13:01:25;;;;;;;;;;;23.70;67.50;;;;;;5055017;28;19955;-69
2022/07/03 13:03:52;;;;;;;;;;;24.10;70.10;;;;;;5054808;28;19917;-72
2022/07/03 13:06:22;;;;;;;;;;;24.50;67.50;;;;;;5054853;28;19923;-72
2022/07/03 13:08:50;;;;;;;;;;;24.60;67.60;;;;;;5054785;28;19916;-73
2022/07/03 13:11:24;;;;;;;;;;;24.70;67.70;;;;;;5087319;28;19917;-73
2022/07/03 13:13:51;;;;;;;;;;;24.70;67.60;;;;;;5055026;28;19962;-69
2022/07/03 13:16:27;;;;;;;;;;;24.60;64.20;;;;;;5055500;28;20182;-71
2022/07/03 13:19:00;;;;;;;;;;;24.50;66.20;;;;;;5087017;28;20204;-70
2022/07/03 13:21:27;;;;;;;;;;;24.40;64.00;;;;;;5087834;28;19962;-70
2022/07/03 13:24:01;;;;;;;;;;;24.30;66.20;;;;;;5054820;28;19923;-70
2022/07/03 13:26:28;;;;;;;;;;;24.30;66.00;;;;;;5086413;28;19955;-70
2022/07/03 13:28:55;;;;;;;;;;;24.10;64.80;;;;;;5054356;28;20352;-70
2022/07/03 13:31:22;;;;;;;;;;;24.00;65.20;;;;;;5054318;28;19955;-71
2022/07/03 13:33:50;;;;;;;;;;;23.90;66.60;;;;;;5054627;28;19916;-70
2022/07/03 13:36:17;;;;;;;;;;;24.00;66.80;;;;;;5054234;28;19917;-71
2022/07/03 13:38:44;;;;;;;;;;;23.90;67.40;;;;;;5086847;28;19917;-71
2022/07/03 13:41:11;;;;;;;;;;;24.00;69.30;;;;;;5054206;28;19924;-71
2022/07/03 13:43:38;;;;;;;;;;;24.20;70.90;;;;;;5053666;28;19923;-71
2022/07/03 13:46:05;;;;;;;;;;;24.50;69.60;;;;;;5054316;28;19924;-70
2022/07/03 13:48:32;;;;;;;;;;;24.60;68.50;;;;;;5053993;28;20316;-71
2022/07/03 13:50:59;;;;;;;;;;;24.90;68.70;;;;;;5053508;28;19931;-70
2022/07/03 13:53:26;;;;;;;;;;;25.00;67.40;;;;;;5053926;28;19928;-71
2022/07/03 13:55:54;;;;;;;;;;;25.00;67.90;;;;;;5053896;28;20365;-70
2022/07/03 13:58:20;;;;;;;;;;;25.10;67.20;;;;;;5052853;28;19917;-70
2022/07/03 14:00:47;;;;;;;;;;;25.20;63.00;;;;;;5053586;28;19923;-71
2022/07/03 14:03:14;;;;;;;;;;;25.20;64.20;;;;;;5054483;28;19917;-71
2022/07/03 14:05:41;;;;;;;;;;;25.10;63.30;;;;;;5053717;28;19959;-70
2022/07/03 14:08:08;;;;;;;;;;;24.90;62.90;;;;;;5054533;28;19917;-68
2022/07/03 14:10:34;;;;;;;;;;;24.80;62.60;;;;;;5053661;28;19916;-68
2022/07/03 14:13:01;;;;;;;;;;;24.70;63.10;;;;;;5053696;28;19924;-66
2022/07/03 14:15:28;;;;;;;;;;;24.60;63.30;;;;;;5054747;28;19924;-62
2022/07/03 14:17:58;;;;;;;;;;;24.50;64.10;;;;;;5086555;28;19924;-69
2022/07/03 14:20:25;;;;;;;;;;;24.30;63.80;;;;;;5053616;28;20383;-68
2022/07/03 14:22:52;;;;;;;;;;;24.10;63.00;;;;;;5053936;28;19916;-68
2022/07/03 14:25:19;;;;;;;;;;;24.00;63.20;;;;;;5054400;28;19958;-68
2022/07/03 14:33:17;;;;;;;;;;;23.60;64.90;;;;;;5053524;28;19917;-69
2022/07/03 14:35:44;;;;;;;;;;;23.50;65.20;;;;;;5053545;28;20353;-67
2022/07/03 14:38:11;;;;;;;;;;;23.40;63.90;;;;;;5053381;28;20352;-67
2022/07/03 14:40:38;;;;;;;;;;;23.20;64.50;;;;;;5053642;28;19916;-68
2022/07/03 14:43:05;;;;;;;;;;;23.20;66.20;;;;;;5053424;28;19917;-68
2022/07/03 14:45:34;;;;;;;;;;;23.20;65.80;;;;;;5053631;28;19971;-67
2022/07/03 14:48:07;;;;;;;;;;;23.00;66.00;;;;;;5052691;28;19921;-68
2022/07/03 14:50:34;;;;;;;;;;;22.90;66.60;;;;;;5053495;28;19916;-68